createdAt,value
2018-11-12T00:00:19.818Z,15.80
2018-11-12T00:02:49.946Z,15.40
2018-11-12T00:05:18.227Z,20.90
2018-11-12T00:07:46.148Z,14.40
2018-11-12T00:10:13.917Z,10.67
2018-11-12T00:12:41.694Z,15.00
2018-11-12T00:15:10.756Z,13.33
2018-11-12T00:17:38.760Z,9.60
2018-11-12T00:20:07.487Z,13.03
2018-11-12T00:22:35.463Z,12.73
2018-11-12T00:25:03.387Z,9.97
2018-11-12T00:27:31.149Z,13.57
2018-11-12T00:29:58.975Z,14.20
2018-11-12T00:32:26.865Z,10.77
2018-11-12T00:34:54.693Z,11.63
2018-11-12T00:37:22.441Z,9.73
2018-11-12T00:39:50.317Z,10.50
2018-11-12T00:42:18.100Z,11.80
2018-11-12T00:44:45.950Z,10.57
2018-11-12T00:47:13.734Z,11.30
2018-11-12T00:49:41.789Z,10.33
2018-11-12T00:52:09.559Z,10.73
2018-11-12T00:54:37.375Z,9.90
2018-11-12T00:57:05.363Z,11.40
2018-11-12T00:59:33.146Z,13.17
2018-11-12T01:02:01.080Z,10.50
2018-11-12T01:04:29.473Z,11.23
2018-11-12T01:06:57.239Z,10.77
2018-11-12T01:09:24.978Z,10.00
2018-11-12T01:11:52.789Z,12.07
2018-11-12T01:14:20.605Z,11.80
2018-11-12T01:16:48.404Z,9.40
2018-11-12T01:19:16.344Z,11.60
2018-11-12T01:21:44.246Z,15.20
2018-11-12T01:24:12.307Z,12.50
2018-11-12T01:26:40.079Z,9.97
2018-11-12T01:29:07.833Z,13.33
2018-11-12T01:31:35.706Z,12.53
2018-11-12T01:34:03.515Z,11.93
2018-11-12T01:36:31.278Z,12.90
2018-11-12T01:38:59.083Z,11.07
2018-11-12T01:41:26.800Z,9.97
2018-11-12T01:43:54.556Z,9.37
2018-11-12T01:46:22.349Z,10.43
2018-11-12T01:48:50.160Z,12.67
2018-11-12T01:51:17.908Z,10.63
2018-11-12T01:53:46.247Z,13.67
2018-11-12T01:56:14.043Z,14.80
2018-11-12T01:58:41.831Z,13.60
2018-11-12T02:01:09.598Z,13.40
2018-11-12T02:03:38.020Z,13.60
2018-11-12T02:06:05.811Z,10.87
2018-11-12T02:08:33.598Z,17.30
2018-11-12T02:11:01.364Z,12.40
2018-11-12T02:13:29.245Z,15.53
2018-11-12T02:15:57.046Z,13.60
2018-11-12T02:18:24.816Z,12.60
2018-11-12T02:20:52.579Z,13.07
2018-11-12T02:23:20.354Z,11.37
2018-11-12T02:25:48.114Z,15.50
2018-11-12T02:28:15.919Z,15.90
2018-11-12T02:30:46.072Z,10.63
2018-11-12T02:33:15.130Z,11.97
2018-11-12T02:35:42.910Z,16.60
2018-11-12T02:38:10.828Z,10.30
2018-11-12T02:40:38.606Z,11.23
2018-11-12T02:43:06.672Z,10.30
2018-11-12T02:45:34.508Z,13.03
2018-11-12T02:48:02.255Z,10.67
2018-11-12T02:50:30.003Z,14.63
2018-11-12T02:52:57.770Z,9.90
2018-11-12T02:55:25.521Z,9.03
2018-11-12T02:57:53.290Z,10.13
2018-11-12T03:00:22.329Z,8.73
2018-11-12T03:02:50.418Z,10.33
2018-11-12T03:05:18.214Z,10.80
2018-11-12T03:07:46.245Z,11.57
2018-11-12T03:10:17.209Z,10.57
2018-11-12T03:12:44.975Z,9.23
2018-11-12T03:15:13.927Z,11.93
2018-11-12T03:17:42.442Z,9.37
2018-11-12T03:20:12.360Z,10.50
2018-11-12T03:22:40.240Z,12.63
2018-11-12T03:25:09.480Z,12.13
2018-11-12T03:27:37.296Z,17.23
2018-11-12T03:30:05.759Z,12.30
2018-11-12T03:32:33.531Z,11.53
2018-11-12T03:35:01.291Z,12.50
2018-11-12T03:37:29.058Z,10.10
2018-11-12T03:39:56.788Z,11.60
2018-11-12T03:42:24.558Z,9.20
2018-11-12T03:44:52.339Z,13.87
2018-11-12T03:47:20.091Z,10.43
2018-11-12T03:49:47.890Z,14.27
2018-11-12T03:52:15.642Z,8.60
2018-11-12T03:54:43.397Z,9.87
2018-11-12T03:57:11.176Z,11.63
2018-11-12T03:59:38.970Z,9.37
2018-11-12T04:02:06.756Z,10.40
2018-11-12T04:04:34.514Z,10.00
2018-11-12T04:07:02.243Z,6.97
2018-11-12T04:09:30.027Z,8.30
2018-11-12T04:11:57.826Z,9.70
2018-11-12T04:14:25.594Z,9.83
2018-11-12T04:16:53.395Z,11.50
2018-11-12T04:19:21.217Z,8.37
2018-11-12T04:21:48.968Z,8.30
2018-11-12T04:24:16.711Z,8.23
2018-11-12T04:26:44.484Z,10.03
2018-11-12T04:29:12.256Z,7.57
2018-11-12T04:31:40.068Z,9.20
2018-11-12T04:34:07.861Z,9.20
2018-11-12T04:36:35.663Z,8.87
2018-11-12T04:39:05.406Z,9.23
2018-11-12T04:41:33.206Z,10.53
2018-11-12T04:44:00.948Z,8.53
2018-11-12T04:46:28.702Z,9.53
2018-11-12T04:48:56.517Z,8.77
2018-11-12T04:51:24.302Z,9.37
2018-11-12T04:53:52.094Z,9.73
2018-11-12T04:56:19.854Z,15.03
2018-11-12T04:58:47.860Z,10.37
2018-11-12T05:01:16.473Z,9.20
2018-11-12T05:03:44.246Z,8.03
2018-11-12T05:06:12.034Z,9.23
2018-11-12T05:08:39.828Z,7.80
2018-11-12T05:11:07.652Z,7.73
2018-11-12T05:13:36.260Z,5.87
2018-11-12T05:16:04.401Z,7.87
2018-11-12T05:18:32.184Z,10.10
2018-11-12T05:20:59.928Z,11.43
2018-11-12T05:23:27.745Z,10.37
2018-11-12T05:25:55.541Z,8.27
2018-11-12T05:28:23.314Z,12.10
2018-11-12T05:30:51.094Z,7.97
2018-11-12T05:33:18.862Z,9.90
2018-11-12T05:35:46.620Z,10.43
2018-11-12T05:38:15.109Z,9.40
2018-11-12T05:40:42.922Z,8.47
2018-11-12T05:43:10.741Z,10.80
2018-11-12T05:45:38.484Z,9.37
2018-11-12T05:48:06.291Z,12.53
2018-11-12T05:50:34.035Z,12.83
2018-11-12T05:53:03.107Z,10.33
2018-11-12T05:55:31.509Z,15.13
2018-11-12T05:57:59.615Z,14.93
2018-11-12T06:00:29.682Z,11.67
2018-11-12T06:02:57.429Z,15.83
2018-11-12T06:05:25.214Z,13.07
2018-11-12T06:07:52.977Z,21.10
2018-11-12T06:10:22.017Z,14.70
2018-11-12T06:12:50.050Z,16.93
2018-11-12T06:15:18.650Z,15.67
2018-11-12T06:17:47.355Z,17.20
2018-11-12T06:20:17.269Z,14.07
2018-11-12T06:22:45.122Z,14.77
2018-11-12T06:25:14.241Z,23.83
2018-11-12T06:27:41.999Z,16.33
2018-11-12T06:30:14.863Z,19.37
2018-11-12T06:32:42.802Z,16.93
2018-11-12T06:35:11.566Z,17.63
2018-11-12T06:37:39.515Z,18.87
2018-11-12T06:40:09.337Z,13.20
2018-11-12T06:42:37.708Z,14.50
2018-11-12T06:45:08.042Z,11.30
2018-11-12T06:47:35.801Z,14.63
2018-11-12T06:50:04.202Z,18.63
2018-11-12T06:52:31.967Z,12.23
2018-11-12T06:54:59.786Z,14.80
2018-11-12T06:57:27.627Z,12.87
2018-11-12T06:59:55.420Z,14.37
2018-11-12T07:02:23.170Z,12.10
2018-11-12T07:04:50.908Z,11.10
2018-11-12T07:07:18.712Z,13.20
2018-11-12T07:09:46.569Z,14.30
2018-11-12T07:12:14.400Z,8.07
2018-11-12T07:14:42.226Z,10.13
2018-11-12T07:17:10.044Z,7.77
2018-11-12T07:19:37.951Z,8.60
2018-11-12T07:22:05.733Z,7.53
2018-11-12T07:24:33.498Z,11.93
2018-11-12T07:27:01.258Z,10.43
2018-11-12T07:29:29.039Z,10.37
2018-11-12T07:31:56.788Z,8.17
2018-11-12T07:34:24.542Z,13.93
2018-11-12T07:36:52.268Z,11.50
2018-11-12T07:39:20.128Z,10.23
2018-11-12T07:41:47.941Z,15.17
2018-11-12T07:44:15.739Z,10.20
2018-11-12T07:46:43.519Z,14.10
2018-11-12T07:49:11.280Z,13.03
2018-11-12T07:51:39.056Z,8.13
2018-11-12T07:54:06.805Z,7.07
2018-11-12T07:56:34.622Z,8.23
2018-11-12T07:59:03.328Z,8.53
2018-11-12T08:01:31.069Z,8.07
2018-11-12T08:03:58.889Z,6.93
2018-11-12T08:06:26.673Z,10.07
2018-11-12T08:08:54.453Z,9.30
2018-11-12T08:11:22.226Z,10.07
2018-11-12T08:13:50.016Z,13.03
2018-11-12T08:16:17.761Z,6.83
2018-11-12T08:18:45.509Z,6.20
2018-11-12T08:21:13.303Z,9.20
2018-11-12T08:23:41.063Z,8.63
2018-11-12T08:26:08.841Z,6.80
2018-11-12T08:28:36.622Z,10.27
2018-11-12T08:31:04.400Z,6.30
2018-11-12T08:33:32.132Z,8.43
2018-11-12T08:35:59.967Z,7.47
2018-11-12T08:38:27.712Z,6.23
2018-11-12T08:40:55.512Z,9.73
2018-11-12T08:43:23.236Z,7.07
2018-11-12T08:45:51.016Z,8.70
2018-11-12T08:48:18.814Z,7.93
2018-11-12T08:50:46.555Z,9.43
2018-11-12T08:53:14.332Z,9.03
2018-11-12T08:55:42.296Z,8.60
2018-11-12T08:58:10.503Z,6.90
2018-11-12T09:00:37.830Z,7.10
2018-11-12T09:03:05.652Z,8.33
2018-11-12T09:05:33.629Z,8.60
2018-11-12T09:08:02.455Z,9.63
2018-11-12T09:10:31.526Z,7.40
2018-11-12T09:12:59.284Z,8.40
2018-11-12T09:15:27.104Z,7.60
2018-11-12T09:17:54.907Z,9.30
2018-11-12T09:20:24.863Z,10.03
2018-11-12T09:22:53.089Z,11.13
2018-11-12T09:25:22.045Z,7.83
2018-11-12T09:27:50.109Z,7.60
2018-11-12T09:30:19.301Z,6.70
2018-11-12T09:32:47.303Z,4.73
2018-11-12T09:35:23.028Z,6.33
2018-11-12T09:37:51.876Z,8.00
2018-11-12T09:40:27.712Z,7.43
2018-11-12T09:42:55.444Z,10.50
2018-11-12T09:45:23.286Z,6.60
2018-11-12T09:47:51.111Z,6.83
2018-11-12T09:50:19.988Z,10.80
2018-11-12T09:52:49.065Z,7.10
2018-11-12T09:55:17.575Z,8.57
2018-11-12T09:57:49.856Z,9.93
2018-11-12T10:00:18.951Z,6.77
2018-11-12T10:02:48.196Z,11.43
2018-11-12T10:05:17.229Z,9.57
2018-11-12T10:07:46.325Z,11.10
2018-11-12T10:10:34.370Z,10.13
2018-11-12T10:13:01.653Z,10.07
2018-11-12T10:15:31.366Z,11.67
2018-11-12T10:17:58.819Z,11.30
2018-11-12T10:20:23.655Z,15.73
2018-11-12T10:22:51.388Z,14.03
2018-11-12T10:25:19.866Z,10.97
2018-11-12T10:27:47.667Z,18.00
2018-11-12T10:30:15.426Z,12.93
2018-11-12T10:32:43.246Z,14.87
2018-11-12T10:35:11.133Z,18.17
2018-11-12T10:37:39.715Z,10.33
2018-11-12T10:40:10.824Z,9.50
2018-11-12T10:42:38.639Z,15.77
2018-11-12T10:45:06.779Z,7.67
2018-11-12T10:47:34.556Z,9.63
2018-11-12T10:50:02.339Z,11.50
2018-11-12T10:52:30.083Z,7.93
2018-11-12T10:55:04.900Z,6.73
2018-11-12T10:57:25.662Z,5.93
2018-11-12T10:59:53.420Z,8.47
2018-11-12T11:02:26.660Z,8.23
2018-11-12T11:04:54.398Z,7.50
2018-11-12T11:07:22.191Z,8.17
2018-11-12T11:09:49.970Z,7.90
2018-11-12T11:12:17.727Z,6.90
2018-11-12T11:14:45.510Z,6.90
2018-11-12T11:17:13.279Z,7.40
2018-11-12T11:19:41.148Z,6.67
2018-11-12T11:22:08.897Z,6.33
2018-11-12T11:24:36.734Z,6.57
2018-11-12T11:27:04.552Z,6.40
2018-11-12T11:29:32.314Z,8.27
2018-11-12T11:32:00.183Z,8.20
2018-11-12T11:34:27.958Z,5.70
2018-11-12T11:36:56.563Z,8.80
2018-11-12T11:39:24.320Z,5.97
2018-11-12T11:41:52.096Z,5.10
2018-11-12T11:44:19.854Z,4.47
2018-11-12T11:46:47.626Z,4.60
2018-11-12T11:49:15.389Z,5.20
2018-11-12T11:51:43.216Z,3.17
2018-11-12T11:54:11.027Z,3.47
2018-11-12T11:56:38.874Z,3.80
2018-11-12T11:59:06.578Z,4.50
2018-11-12T12:01:34.312Z,5.30
2018-11-12T12:04:02.119Z,4.87
2018-11-12T12:06:30.805Z,4.00
2018-11-12T12:08:58.640Z,4.47
2018-11-12T12:11:26.398Z,4.37
2018-11-12T12:13:54.285Z,4.07
2018-11-12T12:16:22.053Z,3.53
2018-11-12T12:18:49.801Z,5.07
2018-11-12T12:21:17.531Z,3.23
2018-11-12T12:23:45.291Z,4.00
2018-11-12T12:26:13.040Z,8.17
2018-11-12T12:28:41.186Z,4.53
2018-11-12T12:31:08.962Z,4.63
2018-11-12T12:33:36.751Z,6.40
2018-11-12T12:36:04.754Z,4.03
2018-11-12T12:38:32.454Z,3.60
2018-11-12T12:41:00.179Z,5.77
2018-11-12T12:43:27.964Z,3.07
2018-11-12T12:45:55.753Z,3.53
2018-11-12T12:48:23.558Z,2.00
2018-11-12T12:50:51.366Z,2.20
2018-11-12T12:53:19.150Z,4.50
2018-11-12T12:55:47.354Z,5.40
2018-11-12T12:58:15.144Z,2.07
2018-11-12T13:00:42.898Z,3.20
2018-11-12T13:03:10.660Z,3.97
2018-11-12T13:05:39.444Z,2.97
2018-11-12T13:08:07.204Z,2.27
2018-11-12T13:10:34.947Z,4.93
2018-11-12T13:13:02.718Z,3.47
2018-11-12T13:15:30.473Z,3.27
2018-11-12T13:17:58.199Z,3.57
2018-11-12T13:20:26.006Z,1.90
2018-11-12T13:22:53.747Z,6.90
2018-11-12T13:25:21.509Z,2.00
2018-11-12T13:27:49.334Z,4.70
2018-11-12T13:30:19.699Z,3.40
2018-11-12T13:32:47.783Z,5.20
2018-11-12T13:35:16.968Z,5.33
2018-11-12T13:37:44.841Z,6.87
2018-11-12T13:40:15.587Z,3.80
2018-11-12T13:42:44.730Z,4.30
2018-11-12T13:45:12.496Z,6.00
2018-11-12T13:47:40.268Z,5.23
2018-11-12T13:50:12.185Z,4.80
2018-11-12T13:52:39.999Z,5.37
2018-11-12T13:55:09.370Z,5.90
2018-11-12T13:57:37.120Z,6.83
2018-11-12T14:00:07.546Z,7.13
2018-11-12T14:02:35.307Z,7.20
2018-11-12T14:05:03.234Z,9.23
2018-11-12T14:07:30.971Z,9.90
2018-11-12T14:09:58.719Z,10.40
2018-11-12T14:12:26.484Z,7.03
2018-11-12T14:14:54.283Z,8.03
2018-11-12T14:17:22.025Z,8.17
2018-11-12T14:19:49.761Z,6.47
2018-11-12T14:22:17.496Z,5.40
2018-11-12T14:24:45.270Z,8.93
2018-11-12T14:27:13.415Z,6.13
2018-11-12T14:29:41.267Z,7.73
2018-11-12T14:32:09.049Z,5.90
2018-11-12T14:34:36.807Z,8.33
2018-11-12T14:37:04.727Z,6.80
2018-11-12T14:39:32.598Z,10.67
2018-11-12T14:42:00.406Z,7.70
2018-11-12T14:44:28.203Z,8.37
2018-11-12T14:46:55.929Z,8.57
2018-11-12T14:49:23.658Z,5.27
2018-11-12T14:51:51.424Z,7.30
2018-11-12T14:54:19.211Z,7.03
2018-11-12T14:56:46.961Z,7.27
2018-11-12T14:59:14.670Z,6.90
2018-11-12T15:01:42.515Z,6.93
2018-11-12T15:04:10.261Z,7.23
2018-11-12T15:06:38.052Z,8.23
2018-11-12T15:09:08.513Z,8.20
2018-11-12T15:11:36.335Z,8.47
2018-11-12T15:14:04.110Z,9.73
2018-11-12T15:16:31.856Z,9.13
2018-11-12T15:18:59.614Z,12.50
2018-11-12T15:21:27.364Z,11.23
2018-11-12T15:23:55.132Z,10.70
2018-11-12T15:26:22.939Z,15.10
2018-11-12T15:28:50.690Z,14.27
2018-11-12T15:31:18.470Z,13.93
2018-11-12T15:33:46.242Z,16.53
2018-11-12T15:36:14.015Z,18.03
2018-11-12T15:38:41.973Z,22.63
2018-11-12T15:41:09.716Z,26.67
2018-11-12T15:43:37.469Z,30.93
2018-11-12T15:46:05.549Z,43.87
2018-11-12T15:48:33.324Z,53.93
2018-11-12T15:51:01.110Z,64.30
2018-11-12T15:53:28.920Z,50.30
2018-11-12T15:55:56.720Z,55.20
2018-11-12T15:58:24.581Z,48.23
2018-11-12T16:00:52.329Z,68.07
2018-11-12T16:03:20.083Z,67.47
2018-11-12T16:05:47.878Z,59.50
2018-11-12T16:08:15.705Z,70.33
2018-11-12T16:10:43.454Z,40.10
2018-11-12T16:13:11.441Z,57.50
2018-11-12T16:15:39.207Z,43.87
2018-11-12T16:18:07.012Z,25.93
2018-11-12T16:20:34.783Z,32.30
2018-11-12T16:23:02.568Z,31.63
2018-11-12T16:25:30.467Z,40.87
2018-11-12T16:27:58.423Z,47.10
2018-11-12T16:30:26.192Z,59.57
2018-11-12T16:32:53.963Z,74.13
2018-11-12T16:35:22.727Z,77.20
2018-11-12T16:37:51.524Z,95.20
2018-11-12T16:40:19.466Z,91.80
2018-11-12T16:42:48.191Z,119.73
2018-11-12T16:45:19.158Z,152.37
2018-11-12T16:47:50.008Z,89.77
2018-11-12T16:50:18.009Z,119.47
2018-11-12T16:52:45.876Z,119.43
2018-11-12T16:55:19.613Z,124.73
2018-11-12T16:57:47.469Z,108.30
2018-11-12T17:00:16.392Z,107.50
2018-11-12T17:02:44.470Z,126.10
2018-11-12T17:05:13.665Z,131.90
2018-11-12T17:07:41.435Z,168.67
2018-11-12T17:10:10.847Z,149.87
2018-11-12T17:12:39.546Z,126.40
2018-11-12T17:15:07.659Z,170.33
2018-11-12T17:17:35.611Z,115.57
2018-11-12T17:20:03.537Z,157.77
2018-11-12T17:22:31.321Z,152.83
2018-11-12T17:24:59.124Z,161.20
2018-11-12T17:27:26.894Z,172.70
2018-11-12T17:29:54.619Z,186.47
2018-11-12T17:32:22.364Z,166.33
2018-11-12T17:34:50.127Z,201.73
2018-11-12T17:37:17.898Z,154.23
2018-11-12T17:39:45.684Z,152.83
2018-11-12T17:42:13.427Z,153.47
2018-11-12T17:44:41.181Z,142.33
2018-11-12T17:47:09.005Z,165.10
2018-11-12T17:49:36.913Z,135.10
2018-11-12T17:52:04.916Z,189.70
2018-11-12T17:54:32.784Z,133.60
2018-11-12T17:57:00.518Z,134.30
2018-11-12T17:59:28.272Z,149.20
2018-11-12T18:01:56.030Z,115.53
2018-11-12T18:04:23.819Z,127.27
2018-11-12T18:06:51.599Z,114.13
2018-11-12T18:09:19.366Z,87.67
2018-11-12T18:11:47.129Z,93.10
2018-11-12T18:14:14.911Z,106.73
2018-11-12T18:16:42.638Z,78.67
2018-11-12T18:19:10.440Z,108.60
2018-11-12T18:21:44.829Z,111.13
2018-11-12T18:24:12.599Z,97.53
2018-11-12T18:26:40.316Z,96.87
2018-11-12T18:29:08.323Z,89.07
2018-11-12T18:31:36.163Z,99.97
2018-11-12T18:34:04.695Z,97.90
2018-11-12T18:36:32.437Z,67.57
2018-11-12T18:39:01.859Z,91.53
2018-11-12T18:41:30.283Z,62.67
2018-11-12T18:43:58.098Z,98.03
2018-11-12T18:46:25.887Z,61.27
2018-11-12T18:48:53.645Z,54.93
2018-11-12T18:51:21.419Z,72.70
2018-11-12T18:53:50.359Z,51.60
2018-11-12T18:56:18.121Z,69.83
2018-11-12T18:58:46.880Z,38.37
2018-11-12T19:01:14.687Z,44.17
2018-11-12T19:03:42.476Z,55.70
2018-11-12T19:06:10.279Z,51.17
2018-11-12T19:08:38.031Z,49.70
2018-11-12T19:11:05.852Z,53.13
2018-11-12T19:13:33.771Z,53.83
2018-11-12T19:16:01.558Z,64.27
2018-11-12T19:18:29.964Z,58.37
2018-11-12T19:20:58.701Z,78.97
2018-11-12T19:23:28.050Z,97.50
2018-11-12T19:25:56.206Z,84.97
2018-11-12T19:28:24.403Z,67.13
2018-11-12T19:30:53.965Z,97.07
2018-11-12T19:33:23.672Z,89.57
2018-11-12T19:35:51.890Z,91.07
2018-11-12T19:38:20.181Z,82.10
2018-11-12T19:40:48.383Z,82.03
2018-11-12T19:43:18.678Z,74.03
2018-11-12T19:45:46.499Z,96.50
2018-11-12T19:48:14.296Z,95.70
2018-11-12T19:50:42.061Z,82.87
2018-11-12T19:53:09.821Z,95.40
2018-11-12T19:55:37.580Z,95.77
2018-11-12T19:58:05.656Z,104.67
2018-11-12T20:00:33.400Z,85.77
2018-11-12T20:03:01.968Z,99.27
2018-11-12T20:05:29.770Z,116.80
2018-11-12T20:07:59.604Z,114.30
2018-11-12T20:10:27.458Z,130.83
2018-11-12T20:12:55.276Z,100.87
2018-11-12T20:15:24.016Z,84.80
2018-11-12T20:17:52.580Z,90.80
2018-11-12T20:20:24.574Z,83.90
2018-11-12T20:22:52.611Z,67.40
2018-11-12T20:25:20.802Z,78.33
2018-11-12T20:27:49.379Z,73.90
2018-11-12T20:30:23.186Z,81.97
2018-11-12T20:32:50.953Z,76.43
2018-11-12T20:35:18.684Z,86.50
2018-11-12T20:37:46.415Z,91.53
2018-11-12T20:40:15.094Z,91.00
2018-11-12T20:42:44.002Z,101.87
2018-11-12T20:45:13.009Z,83.83
2018-11-12T20:47:41.563Z,92.50
2018-11-12T20:50:10.552Z,86.93
2018-11-12T20:52:38.379Z,108.13
2018-11-12T20:55:07.149Z,81.13
2018-11-12T20:57:35.590Z,97.20
2018-11-12T21:00:03.667Z,78.43
2018-11-12T21:02:31.530Z,77.23
2018-11-12T21:04:59.289Z,79.97
2018-11-12T21:07:27.087Z,81.90
2018-11-12T21:09:54.924Z,73.70
2018-11-12T21:12:22.675Z,65.90
2018-11-12T21:14:50.431Z,50.87
2018-11-12T21:17:18.203Z,64.20
2018-11-12T21:19:45.938Z,50.77
2018-11-12T21:22:14.591Z,61.67
2018-11-12T21:24:42.757Z,64.33
2018-11-12T21:27:10.515Z,50.27
2018-11-12T21:29:38.292Z,57.87
2018-11-12T21:32:06.147Z,64.83
2018-11-12T21:34:33.920Z,63.87
2018-11-12T21:37:01.744Z,44.77
2018-11-12T21:39:29.496Z,54.57
2018-11-12T21:41:57.268Z,70.77
2018-11-12T21:44:25.089Z,60.63
2018-11-12T21:46:52.839Z,51.43
2018-11-12T21:49:20.703Z,70.20
2018-11-12T21:51:48.464Z,52.10
2018-11-12T21:54:16.215Z,43.60
2018-11-12T21:56:43.964Z,51.93
2018-11-12T21:59:11.791Z,49.20
2018-11-12T22:01:39.562Z,51.97
2018-11-12T22:04:07.349Z,47.70
2018-11-12T22:06:35.111Z,51.37
2018-11-12T22:09:04.990Z,57.47
2018-11-12T22:11:32.713Z,44.70
2018-11-12T22:14:00.497Z,50.23
2018-11-12T22:16:28.321Z,45.33
2018-11-12T22:18:56.064Z,44.43
2018-11-12T22:21:23.806Z,57.17
2018-11-12T22:23:51.541Z,46.33
2018-11-12T22:26:19.349Z,61.03
2018-11-12T22:28:47.102Z,48.50
2018-11-12T22:31:14.863Z,64.20
2018-11-12T22:33:42.596Z,61.87
2018-11-12T22:36:10.346Z,52.53
2018-11-12T22:38:38.154Z,43.50
2018-11-12T22:41:05.940Z,43.40
2018-11-12T22:43:33.695Z,46.67
2018-11-12T22:46:01.603Z,41.43
2018-11-12T22:48:29.382Z,39.87
2018-11-12T22:50:57.144Z,41.27
2018-11-12T22:53:24.891Z,44.80
2018-11-12T22:55:52.630Z,43.13
2018-11-12T22:58:20.516Z,43.50
2018-11-12T23:00:48.359Z,44.50
2018-11-12T23:03:16.116Z,43.20
2018-11-12T23:05:43.888Z,38.53
2018-11-12T23:08:11.634Z,33.70
2018-11-12T23:10:39.454Z,35.53
2018-11-12T23:13:07.253Z,28.30
2018-11-12T23:15:35.008Z,38.57
2018-11-12T23:18:02.811Z,42.20
2018-11-12T23:20:30.713Z,36.50
2018-11-12T23:22:58.504Z,34.43
2018-11-12T23:25:26.270Z,30.97
2018-11-12T23:27:54.526Z,37.27
2018-11-12T23:30:23.663Z,30.63
2018-11-12T23:32:51.440Z,34.53
2018-11-12T23:35:20.472Z,37.83
2018-11-12T23:37:48.691Z,40.97
2018-11-12T23:40:16.769Z,40.70
2018-11-12T23:42:45.333Z,34.70
2018-11-12T23:45:13.134Z,41.23
2018-11-12T23:47:40.932Z,45.13
2018-11-12T23:50:13.600Z,44.60
2018-11-12T23:52:41.649Z,39.20
2018-11-12T23:55:09.800Z,45.33
2018-11-12T23:57:37.670Z,44.50
